sensor_id;sensor_type;location;lat;lon;timestamp;P1;durP1;ratioP1;P2;durP2;ratioP2
71172;SDS011;58875;51.996;4.504;2022-11-25T00:01:14;6.39;;;5.26;;
71172;SDS011;58875;51.996;4.504;2022-11-25T00:03:42;7.21;;;5.89;;
71172;SDS011;58875;51.996;4.504;2022-11-25T00:06:19;6.73;;;5.58;;
71172;SDS011;58875;51.996;4.504;2022-11-25T00:08:52;6.48;;;5.49;;
71172;SDS011;58875;51.996;4.504;2022-11-25T00:11:20;6.05;;;5.24;;
71172;SDS011;58875;51.996;4.504;2022-11-25T00:13:46;6.37;;;5.39;;
71172;SDS011;58875;51.996;4.504;2022-11-25T00:16:17;6.71;;;5.56;;
71172;SDS011;58875;51.996;4.504;2022-11-25T00:18:44;6.42;;;5.37;;
71172;SDS011;58875;51.996;4.504;2022-11-25T00:21:13;6.27;;;5.28;;
71172;SDS011;58875;51.996;4.504;2022-11-25T00:23:41;5.84;;;4.97;;
71172;SDS011;58875;51.996;4.504;2022-11-25T00:26:13;6.28;;;5.38;;
71172;SDS011;58875;51.996;4.504;2022-11-25T00:28:41;6.36;;;5.49;;
71172;SDS011;58875;51.996;4.504;2022-11-25T00:31:11;5.83;;;5.25;;
71172;SDS011;58875;51.996;4.504;2022-11-25T00:33:38;5.29;;;4.88;;
71172;SDS011;58875;51.996;4.504;2022-11-25T00:36:05;5.41;;;4.93;;
71172;SDS011;58875;51.996;4.504;2022-11-25T00:38:35;5.34;;;4.83;;
71172;SDS011;58875;51.996;4.504;2022-11-25T00:41:01;5.54;;;5.00;;
71172;SDS011;58875;51.996;4.504;2022-11-25T00:43:45;6.04;;;5.36;;
71172;SDS011;58875;51.996;4.504;2022-11-25T00:46:29;5.89;;;5.39;;
71172;SDS011;58875;51.996;4.504;2022-11-25T00:48:54;5.81;;;5.40;;
71172;SDS011;58875;51.996;4.504;2022-11-25T00:51:20;6.18;;;5.72;;
71172;SDS011;58875;51.996;4.504;2022-11-25T00:53:45;6.14;;;5.89;;
71172;SDS011;58875;51.996;4.504;2022-11-25T00:56:11;6.03;;;5.75;;
71172;SDS011;58875;51.996;4.504;2022-11-25T00:58:40;6.12;;;5.70;;
71172;SDS011;58875;51.996;4.504;2022-11-25T01:01:06;6.36;;;5.99;;
71172;SDS011;58875;51.996;4.504;2022-11-25T01:03:32;6.17;;;5.95;;
71172;SDS011;58875;51.996;4.504;2022-11-25T01:06:05;6.33;;;6.06;;
71172;SDS011;58875;51.996;4.504;2022-11-25T01:08:32;6.21;;;5.91;;
71172;SDS011;58875;51.996;4.504;2022-11-25T01:10:59;6.22;;;5.86;;
71172;SDS011;58875;51.996;4.504;2022-11-25T01:13:30;6.39;;;6.14;;
71172;SDS011;58875;51.996;4.504;2022-11-25T01:15:56;6.03;;;5.96;;
71172;SDS011;58875;51.996;4.504;2022-11-25T01:18:21;6.38;;;6.28;;
71172;SDS011;58875;51.996;4.504;2022-11-25T01:20:47;5.72;;;5.72;;
71172;SDS011;58875;51.996;4.504;2022-11-25T01:23:12;5.76;;;5.76;;
71172;SDS011;58875;51.996;4.504;2022-11-25T01:25:38;6.12;;;6.12;;
71172;SDS011;58875;51.996;4.504;2022-11-25T01:28:04;6.06;;;6.04;;
71172;SDS011;58875;51.996;4.504;2022-11-25T01:30:30;5.70;;;5.67;;
71172;SDS011;58875;51.996;4.504;2022-11-25T01:32:56;5.52;;;5.49;;
71172;SDS011;58875;51.996;4.504;2022-11-25T01:35:22;5.86;;;5.69;;
71172;SDS011;58875;51.996;4.504;2022-11-25T01:37:47;5.50;;;5.36;;
71172;SDS011;58875;51.996;4.504;2022-11-25T01:40:13;5.42;;;5.21;;
71172;SDS011;58875;51.996;4.504;2022-11-25T01:42:43;5.29;;;4.98;;
71172;SDS011;58875;51.996;4.504;2022-11-25T01:47:46;6.02;;;5.33;;
71172;SDS011;58875;51.996;4.504;2022-11-25T01:50:12;5.03;;;4.56;;
71172;SDS011;58875;51.996;4.504;2022-11-25T01:52:44;5.19;;;4.72;;
71172;SDS011;58875;51.996;4.504;2022-11-25T01:55:25;5.41;;;4.79;;
71172;SDS011;58875;51.996;4.504;2022-11-25T02:00:27;4.85;;;4.27;;
71172;SDS011;58875;51.996;4.504;2022-11-25T02:02:53;5.00;;;4.41;;
71172;SDS011;58875;51.996;4.504;2022-11-25T02:05:21;5.28;;;4.58;;
71172;SDS011;58875;51.996;4.504;2022-11-25T02:07:53;4.90;;;4.25;;
71172;SDS011;58875;51.996;4.504;2022-11-25T02:10:27;4.72;;;4.19;;
71172;SDS011;58875;51.996;4.504;2022-11-25T02:12:55;4.70;;;4.16;;
71172;SDS011;58875;51.996;4.504;2022-11-25T02:15:23;4.48;;;3.97;;
71172;SDS011;58875;51.996;4.504;2022-11-25T02:17:49;4.45;;;3.93;;
71172;SDS011;58875;51.996;4.504;2022-11-25T02:20:16;4.74;;;4.06;;
71172;SDS011;58875;51.996;4.504;2022-11-25T02:25:38;4.48;;;3.93;;
71172;SDS011;58875;51.996;4.504;2022-11-25T02:28:09;4.08;;;3.64;;
71172;SDS011;58875;51.996;4.504;2022-11-25T02:30:40;4.28;;;3.77;;
71172;SDS011;58875;51.996;4.504;2022-11-25T02:33:05;4.83;;;4.19;;
71172;SDS011;58875;51.996;4.504;2022-11-25T02:38:14;4.38;;;3.81;;
71172;SDS011;58875;51.996;4.504;2022-11-25T02:41:11;4.25;;;3.74;;
71172;SDS011;58875;51.996;4.504;2022-11-25T02:43:42;3.84;;;3.41;;
71172;SDS011;58875;51.996;4.504;2022-11-25T02:46:09;3.68;;;3.31;;
71172;SDS011;58875;51.996;4.504;2022-11-25T02:48:38;3.82;;;3.40;;
71172;SDS011;58875;51.996;4.504;2022-11-25T02:51:06;3.98;;;3.40;;
71172;SDS011;58875;51.996;4.504;2022-11-25T02:53:33;3.66;;;3.15;;
71172;SDS011;58875;51.996;4.504;2022-11-25T02:55:59;3.77;;;3.22;;
71172;SDS011;58875;51.996;4.504;2022-11-25T02:58:25;3.95;;;3.42;;
71172;SDS011;58875;51.996;4.504;2022-11-25T03:00:50;3.63;;;3.16;;
71172;SDS011;58875;51.996;4.504;2022-11-25T03:03:16;3.30;;;2.92;;
71172;SDS011;58875;51.996;4.504;2022-11-25T03:05:42;3.05;;;2.68;;
71172;SDS011;58875;51.996;4.504;2022-11-25T03:08:08;2.85;;;2.47;;
71172;SDS011;58875;51.996;4.504;2022-11-25T03:10:34;3.45;;;2.97;;
71172;SDS011;58875;51.996;4.504;2022-11-25T03:13:00;3.30;;;2.82;;
71172;SDS011;58875;51.996;4.504;2022-11-25T03:15:25;3.65;;;3.11;;
71172;SDS011;58875;51.996;4.504;2022-11-25T03:17:51;3.44;;;2.97;;
71172;SDS011;58875;51.996;4.504;2022-11-25T03:20:17;3.37;;;2.95;;
71172;SDS011;58875;51.996;4.504;2022-11-25T03:22:44;3.47;;;3.04;;
71172;SDS011;58875;51.996;4.504;2022-11-25T03:25:11;3.30;;;2.87;;
71172;SDS011;58875;51.996;4.504;2022-11-25T03:27:38;3.62;;;3.18;;
71172;SDS011;58875;51.996;4.504;2022-11-25T03:30:06;3.79;;;3.32;;
71172;SDS011;58875;51.996;4.504;2022-11-25T03:32:38;3.49;;;3.12;;
71172;SDS011;58875;51.996;4.504;2022-11-25T03:35:04;3.92;;;3.54;;
71172;SDS011;58875;51.996;4.504;2022-11-25T03:37:30;3.52;;;3.15;;
71172;SDS011;58875;51.996;4.504;2022-11-25T03:39:56;3.17;;;2.89;;
71172;SDS011;58875;51.996;4.504;2022-11-25T03:42:21;3.09;;;2.86;;
71172;SDS011;58875;51.996;4.504;2022-11-25T03:44:47;2.92;;;2.71;;
71172;SDS011;58875;51.996;4.504;2022-11-25T03:47:12;2.58;;;2.40;;
71172;SDS011;58875;51.996;4.504;2022-11-25T03:49:38;2.66;;;2.44;;
71172;SDS011;58875;51.996;4.504;2022-11-25T03:52:03;2.69;;;2.41;;
71172;SDS011;58875;51.996;4.504;2022-11-25T03:54:29;2.42;;;2.17;;
71172;SDS011;58875;51.996;4.504;2022-11-25T03:56:54;2.56;;;2.26;;
71172;SDS011;58875;51.996;4.504;2022-11-25T03:59:20;2.45;;;2.21;;
71172;SDS011;58875;51.996;4.504;2022-11-25T04:01:45;2.25;;;2.08;;
71172;SDS011;58875;51.996;4.504;2022-11-25T04:04:11;2.18;;;1.99;;
71172;SDS011;58875;51.996;4.504;2022-11-25T04:06:36;2.28;;;2.10;;
71172;SDS011;58875;51.996;4.504;2022-11-25T04:09:04;2.04;;;1.88;;
71172;SDS011;58875;51.996;4.504;2022-11-25T04:11:32;2.03;;;1.89;;
71172;SDS011;58875;51.996;4.504;2022-11-25T04:14:17;1.86;;;1.74;;
71172;SDS011;58875;51.996;4.504;2022-11-25T04:16:43;1.90;;;1.76;;
71172;SDS011;58875;51.996;4.504;2022-11-25T04:19:08;2.01;;;1.78;;
71172;SDS011;58875;51.996;4.504;2022-11-25T04:21:34;1.94;;;1.70;;
71172;SDS011;58875;51.996;4.504;2022-11-25T04:23:59;1.83;;;1.63;;
71172;SDS011;58875;51.996;4.504;2022-11-25T04:26:25;2.00;;;1.76;;
71172;SDS011;58875;51.996;4.504;2022-11-25T04:28:51;1.77;;;1.54;;
71172;SDS011;58875;51.996;4.504;2022-11-25T04:31:16;1.79;;;1.54;;
71172;SDS011;58875;51.996;4.504;2022-11-25T04:33:42;1.93;;;1.66;;
71172;SDS011;58875;51.996;4.504;2022-11-25T04:36:07;1.74;;;1.51;;
71172;SDS011;58875;51.996;4.504;2022-11-25T04:38:36;1.73;;;1.50;;
71172;SDS011;58875;51.996;4.504;2022-11-25T04:41:02;1.65;;;1.46;;
71172;SDS011;58875;51.996;4.504;2022-11-25T04:43:27;1.63;;;1.44;;
71172;SDS011;58875;51.996;4.504;2022-11-25T04:45:53;1.69;;;1.51;;
71172;SDS011;58875;51.996;4.504;2022-11-25T04:48:19;1.70;;;1.52;;
71172;SDS011;58875;51.996;4.504;2022-11-25T04:50:45;1.60;;;1.43;;
71172;SDS011;58875;51.996;4.504;2022-11-25T04:53:10;1.63;;;1.44;;
71172;SDS011;58875;51.996;4.504;2022-11-25T04:55:36;1.59;;;1.40;;
71172;SDS011;58875;51.996;4.504;2022-11-25T04:58:01;1.70;;;1.51;;
71172;SDS011;58875;51.996;4.504;2022-11-25T05:00:27;1.79;;;1.58;;
71172;SDS011;58875;51.996;4.504;2022-11-25T05:02:52;1.92;;;1.67;;
71172;SDS011;58875;51.996;4.504;2022-11-25T05:05:18;2.03;;;1.76;;
71172;SDS011;58875;51.996;4.504;2022-11-25T05:07:44;2.12;;;1.85;;
71172;SDS011;58875;51.996;4.504;2022-11-25T05:10:10;2.08;;;1.82;;
71172;SDS011;58875;51.996;4.504;2022-11-25T05:12:36;2.26;;;2.01;;
71172;SDS011;58875;51.996;4.504;2022-11-25T05:15:02;2.18;;;1.95;;
71172;SDS011;58875;51.996;4.504;2022-11-25T05:17:30;2.20;;;2.00;;
71172;SDS011;58875;51.996;4.504;2022-11-25T05:19:56;2.17;;;1.98;;
71172;SDS011;58875;51.996;4.504;2022-11-25T05:22:23;2.22;;;2.05;;
71172;SDS011;58875;51.996;4.504;2022-11-25T05:24:51;2.34;;;2.18;;
71172;SDS011;58875;51.996;4.504;2022-11-25T05:27:17;2.62;;;2.41;;
71172;SDS011;58875;51.996;4.504;2022-11-25T05:29:43;2.44;;;2.26;;
71172;SDS011;58875;51.996;4.504;2022-11-25T05:32:09;2.67;;;2.44;;
71172;SDS011;58875;51.996;4.504;2022-11-25T05:34:36;2.47;;;2.28;;
71172;SDS011;58875;51.996;4.504;2022-11-25T05:37:02;2.40;;;2.28;;
71172;SDS011;58875;51.996;4.504;2022-11-25T05:39:28;2.33;;;2.27;;
71172;SDS011;58875;51.996;4.504;2022-11-25T05:41:53;2.36;;;2.28;;
71172;SDS011;58875;51.996;4.504;2022-11-25T05:44:19;2.48;;;2.40;;
71172;SDS011;58875;51.996;4.504;2022-11-25T05:46:45;2.39;;;2.30;;
71172;SDS011;58875;51.996;4.504;2022-11-25T05:49:11;2.46;;;2.38;;
71172;SDS011;58875;51.996;4.504;2022-11-25T05:51:37;2.51;;;2.40;;
71172;SDS011;58875;51.996;4.504;2022-11-25T05:54:03;2.65;;;2.54;;
71172;SDS011;58875;51.996;4.504;2022-11-25T05:56:28;2.48;;;2.41;;
71172;SDS011;58875;51.996;4.504;2022-11-25T05:58:54;2.65;;;2.58;;
71172;SDS011;58875;51.996;4.504;2022-11-25T06:01:20;2.73;;;2.63;;
71172;SDS011;58875;51.996;4.504;2022-11-25T06:03:46;2.73;;;2.60;;
71172;SDS011;58875;51.996;4.504;2022-11-25T06:06:11;2.99;;;2.83;;
71172;SDS011;58875;51.996;4.504;2022-11-25T06:08:37;3.13;;;3.00;;
71172;SDS011;58875;51.996;4.504;2022-11-25T06:11:08;2.74;;;2.62;;
71172;SDS011;58875;51.996;4.504;2022-11-25T06:13:36;3.09;;;2.95;;
71172;SDS011;58875;51.996;4.504;2022-11-25T06:16:10;3.02;;;2.90;;
71172;SDS011;58875;51.996;4.504;2022-11-25T06:18:40;3.03;;;2.91;;
71172;SDS011;58875;51.996;4.504;2022-11-25T06:21:06;2.62;;;2.49;;
71172;SDS011;58875;51.996;4.504;2022-11-25T06:23:34;2.81;;;2.67;;
71172;SDS011;58875;51.996;4.504;2022-11-25T06:26:04;2.73;;;2.60;;
71172;SDS011;58875;51.996;4.504;2022-11-25T06:28:39;2.91;;;2.76;;
71172;SDS011;58875;51.996;4.504;2022-11-25T06:33:32;3.07;;;2.95;;
71172;SDS011;58875;51.996;4.504;2022-11-25T06:35:57;3.09;;;2.91;;
71172;SDS011;58875;51.996;4.504;2022-11-25T06:38:23;2.94;;;2.79;;
71172;SDS011;58875;51.996;4.504;2022-11-25T06:40:51;3.07;;;2.92;;
71172;SDS011;58875;51.996;4.504;2022-11-25T06:43:17;3.25;;;3.07;;
71172;SDS011;58875;51.996;4.504;2022-11-25T06:45:42;3.63;;;3.43;;
71172;SDS011;58875;51.996;4.504;2022-11-25T06:48:07;3.56;;;3.40;;
71172;SDS011;58875;51.996;4.504;2022-11-25T06:50:33;3.47;;;3.32;;
71172;SDS011;58875;51.996;4.504;2022-11-25T06:52:59;3.33;;;3.21;;
71172;SDS011;58875;51.996;4.504;2022-11-25T06:55:25;3.33;;;3.15;;
71172;SDS011;58875;51.996;4.504;2022-11-25T06:57:51;3.17;;;3.05;;
71172;SDS011;58875;51.996;4.504;2022-11-25T07:00:17;3.28;;;3.15;;
71172;SDS011;58875;51.996;4.504;2022-11-25T07:02:42;3.50;;;3.31;;
71172;SDS011;58875;51.996;4.504;2022-11-25T07:05:08;3.27;;;3.11;;
71172;SDS011;58875;51.996;4.504;2022-11-25T07:07:33;3.57;;;3.35;;
71172;SDS011;58875;51.996;4.504;2022-11-25T07:09:59;3.44;;;3.20;;
71172;SDS011;58875;51.996;4.504;2022-11-25T07:12:24;3.68;;;3.34;;
71172;SDS011;58875;51.996;4.504;2022-11-25T07:14:50;3.22;;;2.93;;
71172;SDS011;58875;51.996;4.504;2022-11-25T07:17:16;3.42;;;3.07;;
71172;SDS011;58875;51.996;4.504;2022-11-25T07:19:41;3.22;;;2.88;;
71172;SDS011;58875;51.996;4.504;2022-11-25T07:22:07;2.89;;;2.59;;
71172;SDS011;58875;51.996;4.504;2022-11-25T07:24:32;3.28;;;2.90;;
71172;SDS011;58875;51.996;4.504;2022-11-25T07:26:58;2.98;;;2.65;;
71172;SDS011;58875;51.996;4.504;2022-11-25T07:29:23;3.11;;;2.79;;
71172;SDS011;58875;51.996;4.504;2022-11-25T07:31:49;2.94;;;2.62;;
71172;SDS011;58875;51.996;4.504;2022-11-25T07:34:16;2.70;;;2.42;;
71172;SDS011;58875;51.996;4.504;2022-11-25T07:36:52;2.85;;;2.59;;
71172;SDS011;58875;51.996;4.504;2022-11-25T07:39:19;2.48;;;2.25;;
71172;SDS011;58875;51.996;4.504;2022-11-25T07:41:53;2.69;;;2.39;;
71172;SDS011;58875;51.996;4.504;2022-11-25T07:44:19;3.02;;;2.66;;
71172;SDS011;58875;51.996;4.504;2022-11-25T07:46:46;2.72;;;2.43;;
71172;SDS011;58875;51.996;4.504;2022-11-25T07:49:17;2.80;;;2.49;;
71172;SDS011;58875;51.996;4.504;2022-11-25T07:51:55;2.61;;;2.33;;
71172;SDS011;58875;51.996;4.504;2022-11-25T07:54:27;2.60;;;2.30;;
71172;SDS011;58875;51.996;4.504;2022-11-25T07:56:52;2.53;;;2.25;;
71172;SDS011;58875;51.996;4.504;2022-11-25T07:59:19;2.34;;;2.08;;
71172;SDS011;58875;51.996;4.504;2022-11-25T08:01:50;2.61;;;2.31;;
71172;SDS011;58875;51.996;4.504;2022-11-25T08:04:20;2.68;;;2.33;;
71172;SDS011;58875;51.996;4.504;2022-11-25T08:06:47;3.05;;;2.59;;
71172;SDS011;58875;51.996;4.504;2022-11-25T08:09:16;2.83;;;2.43;;
71172;SDS011;58875;51.996;4.504;2022-11-25T08:11:44;2.44;;;2.10;;
71172;SDS011;58875;51.996;4.504;2022-11-25T08:14:10;2.67;;;2.25;;
71172;SDS011;58875;51.996;4.504;2022-11-25T08:16:36;2.94;;;2.46;;
71172;SDS011;58875;51.996;4.504;2022-11-25T08:19:03;3.35;;;2.81;;
71172;SDS011;58875;51.996;4.504;2022-11-25T08:21:31;3.20;;;2.68;;
71172;SDS011;58875;51.996;4.504;2022-11-25T08:23:58;3.10;;;2.63;;
71172;SDS011;58875;51.996;4.504;2022-11-25T08:26:25;3.15;;;2.72;;
71172;SDS011;58875;51.996;4.504;2022-11-25T08:28:57;3.29;;;2.90;;
71172;SDS011;58875;51.996;4.504;2022-11-25T08:31:25;3.26;;;2.87;;
71172;SDS011;58875;51.996;4.504;2022-11-25T08:33:53;2.79;;;2.47;;
71172;SDS011;58875;51.996;4.504;2022-11-25T08:36:19;2.91;;;2.56;;
71172;SDS011;58875;51.996;4.504;2022-11-25T08:38:46;2.83;;;2.44;;
71172;SDS011;58875;51.996;4.504;2022-11-25T08:41:16;3.07;;;2.65;;
71172;SDS011;58875;51.996;4.504;2022-11-25T08:43:44;3.43;;;2.93;;
71172;SDS011;58875;51.996;4.504;2022-11-25T08:46:11;3.29;;;2.78;;
71172;SDS011;58875;51.996;4.504;2022-11-25T08:48:38;3.57;;;3.03;;
71172;SDS011;58875;51.996;4.504;2022-11-25T08:51:12;3.31;;;2.83;;
71172;SDS011;58875;51.996;4.504;2022-11-25T08:53:40;3.01;;;2.60;;
71172;SDS011;58875;51.996;4.504;2022-11-25T08:56:07;2.78;;;2.39;;
71172;SDS011;58875;51.996;4.504;2022-11-25T08:58:33;3.07;;;2.58;;
71172;SDS011;58875;51.996;4.504;2022-11-25T09:00:59;3.29;;;2.67;;
71172;SDS011;58875;51.996;4.504;2022-11-25T09:03:25;3.81;;;2.98;;
71172;SDS011;58875;51.996;4.504;2022-11-25T09:05:51;3.29;;;2.56;;
71172;SDS011;58875;51.996;4.504;2022-11-25T09:08:18;3.23;;;2.57;;
71172;SDS011;58875;51.996;4.504;2022-11-25T09:10:43;2.87;;;2.31;;
71172;SDS011;58875;51.996;4.504;2022-11-25T09:13:09;3.20;;;2.55;;
71172;SDS011;58875;51.996;4.504;2022-11-25T09:15:36;3.37;;;2.66;;
71172;SDS011;58875;51.996;4.504;2022-11-25T09:18:05;3.42;;;2.69;;
71172;SDS011;58875;51.996;4.504;2022-11-25T09:20:33;3.83;;;3.03;;
71172;SDS011;58875;51.996;4.504;2022-11-25T09:23:03;3.59;;;2.86;;
71172;SDS011;58875;51.996;4.504;2022-11-25T09:25:29;3.38;;;2.74;;
71172;SDS011;58875;51.996;4.504;2022-11-25T09:27:55;3.56;;;2.90;;
71172;SDS011;58875;51.996;4.504;2022-11-25T09:30:21;3.32;;;2.78;;
71172;SDS011;58875;51.996;4.504;2022-11-25T09:32:48;3.40;;;2.80;;
71172;SDS011;58875;51.996;4.504;2022-11-25T09:35:15;3.28;;;2.76;;
71172;SDS011;58875;51.996;4.504;2022-11-25T09:37:41;3.50;;;2.90;;
71172;SDS011;58875;51.996;4.504;2022-11-25T09:40:07;3.66;;;3.01;;
71172;SDS011;58875;51.996;4.504;2022-11-25T09:45:37;4.21;;;3.32;;
71172;SDS011;58875;51.996;4.504;2022-11-25T09:48:46;4.43;;;3.42;;
71172;SDS011;58875;51.996;4.504;2022-11-25T09:51:40;4.13;;;3.24;;
71172;SDS011;58875;51.996;4.504;2022-11-25T09:54:21;4.01;;;3.18;;
71172;SDS011;58875;51.996;4.504;2022-11-25T09:57:06;4.33;;;3.47;;
71172;SDS011;58875;51.996;4.504;2022-11-25T10:02:29;3.79;;;3.06;;
71172;SDS011;58875;51.996;4.504;2022-11-25T10:05:07;4.21;;;3.39;;
71172;SDS011;58875;51.996;4.504;2022-11-25T10:07:44;3.80;;;3.09;;
71172;SDS011;58875;51.996;4.504;2022-11-25T10:10:24;4.25;;;3.40;;
71172;SDS011;58875;51.996;4.504;2022-11-25T10:12:53;4.48;;;3.48;;
71172;SDS011;58875;51.996;4.504;2022-11-25T10:15:25;4.67;;;3.60;;
71172;SDS011;58875;51.996;4.504;2022-11-25T10:17:56;5.06;;;3.96;;
71172;SDS011;58875;51.996;4.504;2022-11-25T10:20:29;5.03;;;3.93;;
71172;SDS011;58875;51.996;4.504;2022-11-25T10:23:01;4.91;;;3.82;;
71172;SDS011;58875;51.996;4.504;2022-11-25T10:25:33;5.34;;;4.09;;
71172;SDS011;58875;51.996;4.504;2022-11-25T10:28:09;5.19;;;4.08;;
71172;SDS011;58875;51.996;4.504;2022-11-25T10:33:39;5.77;;;4.29;;
71172;SDS011;58875;51.996;4.504;2022-11-25T10:38:56;5.86;;;4.29;;
71172;SDS011;58875;51.996;4.504;2022-11-25T10:41:30;6.67;;;4.83;;
71172;SDS011;58875;51.996;4.504;2022-11-25T10:44:31;5.67;;;4.08;;
71172;SDS011;58875;51.996;4.504;2022-11-25T10:52:32;6.49;;;4.54;;
71172;SDS011;58875;51.996;4.504;2022-11-25T10:55:21;6.28;;;4.42;;
71172;SDS011;58875;51.996;4.504;2022-11-25T10:57:50;6.08;;;4.27;;
71172;SDS011;58875;51.996;4.504;2022-11-25T11:02:53;6.11;;;4.28;;
71172;SDS011;58875;51.996;4.504;2022-11-25T11:05:22;5.62;;;3.98;;
71172;SDS011;58875;51.996;4.504;2022-11-25T11:10:43;5.38;;;3.85;;
71172;SDS011;58875;51.996;4.504;2022-11-25T11:15:52;5.59;;;3.98;;
71172;SDS011;58875;51.996;4.504;2022-11-25T11:18:28;6.26;;;4.39;;
71172;SDS011;58875;51.996;4.504;2022-11-25T11:21:05;6.12;;;4.28;;
71172;SDS011;58875;51.996;4.504;2022-11-25T11:23:51;6.57;;;4.52;;
71172;SDS011;58875;51.996;4.504;2022-11-25T11:29:12;7.59;;;5.10;;
71172;SDS011;58875;51.996;4.504;2022-11-25T11:31:50;6.83;;;4.66;;
71172;SDS011;58875;51.996;4.504;2022-11-25T11:42:19;7.74;;;5.20;;
71172;SDS011;58875;51.996;4.504;2022-11-25T12:01:20;6.06;;;4.21;;
71172;SDS011;58875;51.996;4.504;2022-11-25T12:03:58;6.78;;;4.62;;
71172;SDS011;58875;51.996;4.504;2022-11-25T12:06:57;6.66;;;4.49;;
71172;SDS011;58875;51.996;4.504;2022-11-25T12:09:47;7.91;;;5.31;;
71172;SDS011;58875;51.996;4.504;2022-11-25T12:12:41;6.79;;;4.60;;
71172;SDS011;58875;51.996;4.504;2022-11-25T12:15:24;7.10;;;4.84;;
71172;SDS011;58875;51.996;4.504;2022-11-25T12:17:59;6.84;;;4.67;;
71172;SDS011;58875;51.996;4.504;2022-11-25T12:20:39;6.94;;;4.76;;
71172;SDS011;58875;51.996;4.504;2022-11-25T12:23:47;7.78;;;5.27;;
71172;SDS011;58875;51.996;4.504;2022-11-25T12:29:35;7.51;;;5.04;;
71172;SDS011;58875;51.996;4.504;2022-11-25T12:38:24;7.35;;;5.17;;
71172;SDS011;58875;51.996;4.504;2022-11-25T12:41:20;6.66;;;4.69;;
71172;SDS011;58875;51.996;4.504;2022-11-25T12:44:03;7.18;;;5.11;;
71172;SDS011;58875;51.996;4.504;2022-11-25T12:46:52;7.26;;;4.99;;
71172;SDS011;58875;51.996;4.504;2022-11-25T12:49:24;6.86;;;4.74;;
71172;SDS011;58875;51.996;4.504;2022-11-25T13:09:12;7.43;;;5.15;;
71172;SDS011;58875;51.996;4.504;2022-11-25T13:17:03;7.32;;;5.04;;
71172;SDS011;58875;51.996;4.504;2022-11-25T13:19:35;7.78;;;5.35;;
71172;SDS011;58875;51.996;4.504;2022-11-25T13:22:02;7.56;;;5.19;;
71172;SDS011;58875;51.996;4.504;2022-11-25T13:24:48;7.41;;;5.10;;
71172;SDS011;58875;51.996;4.504;2022-11-25T13:27:30;8.54;;;5.81;;
71172;SDS011;58875;51.996;4.504;2022-11-25T13:29:57;7.59;;;5.26;;
71172;SDS011;58875;51.996;4.504;2022-11-25T13:32:29;7.93;;;5.50;;
71172;SDS011;58875;51.996;4.504;2022-11-25T13:37:46;9.35;;;6.17;;
71172;SDS011;58875;51.996;4.504;2022-11-25T13:42:48;9.76;;;6.29;;
71172;SDS011;58875;51.996;4.504;2022-11-25T13:48:19;9.01;;;5.74;;
71172;SDS011;58875;51.996;4.504;2022-11-25T13:50:49;8.18;;;5.25;;
71172;SDS011;58875;51.996;4.504;2022-11-25T13:53:36;8.37;;;5.35;;
71172;SDS011;58875;51.996;4.504;2022-11-25T13:56:23;7.70;;;4.91;;
71172;SDS011;58875;51.996;4.504;2022-11-25T13:59:32;7.70;;;4.91;;
71172;SDS011;58875;51.996;4.504;2022-11-25T14:02:22;8.52;;;5.35;;
71172;SDS011;58875;51.996;4.504;2022-11-25T14:10:44;8.32;;;5.34;;
71172;SDS011;58875;51.996;4.504;2022-11-25T14:13:40;8.15;;;5.12;;
71172;SDS011;58875;51.996;4.504;2022-11-25T14:19:01;8.72;;;5.55;;
71172;SDS011;58875;51.996;4.504;2022-11-25T14:24:45;7.33;;;4.66;;
71172;SDS011;58875;51.996;4.504;2022-11-25T14:27:24;8.65;;;5.52;;
71172;SDS011;58875;51.996;4.504;2022-11-25T14:29:57;7.85;;;5.09;;
71172;SDS011;58875;51.996;4.504;2022-11-25T14:38:04;8.04;;;5.24;;
71172;SDS011;58875;51.996;4.504;2022-11-25T14:40:40;8.72;;;5.62;;
71172;SDS011;58875;51.996;4.504;2022-11-25T14:43:11;7.88;;;5.08;;
71172;SDS011;58875;51.996;4.504;2022-11-25T14:45:44;7.14;;;4.64;;
71172;SDS011;58875;51.996;4.504;2022-11-25T14:50:39;7.37;;;4.76;;
71172;SDS011;58875;51.996;4.504;2022-11-25T14:53:12;8.31;;;5.36;;
71172;SDS011;58875;51.996;4.504;2022-11-25T14:55:38;9.60;;;6.10;;
71172;SDS011;58875;51.996;4.504;2022-11-25T14:58:04;10.07;;;6.45;;
71172;SDS011;58875;51.996;4.504;2022-11-25T15:00:30;8.61;;;5.51;;
71172;SDS011;58875;51.996;4.504;2022-11-25T15:02:59;8.38;;;5.42;;
71172;SDS011;58875;51.996;4.504;2022-11-25T15:05:32;7.98;;;5.20;;
71172;SDS011;58875;51.996;4.504;2022-11-25T15:08:10;8.48;;;5.44;;
71172;SDS011;58875;51.996;4.504;2022-11-25T15:10:40;8.51;;;5.44;;
71172;SDS011;58875;51.996;4.504;2022-11-25T15:15:51;9.66;;;6.15;;
71172;SDS011;58875;51.996;4.504;2022-11-25T15:18:20;9.52;;;6.09;;
71172;SDS011;58875;51.996;4.504;2022-11-25T15:20:50;9.25;;;6.00;;
71172;SDS011;58875;51.996;4.504;2022-11-25T15:23:35;8.52;;;5.69;;
71172;SDS011;58875;51.996;4.504;2022-11-25T15:26:12;8.10;;;5.31;;
71172;SDS011;58875;51.996;4.504;2022-11-25T15:28:42;8.53;;;5.60;;
71172;SDS011;58875;51.996;4.504;2022-11-25T15:31:10;7.64;;;5.04;;
71172;SDS011;58875;51.996;4.504;2022-11-25T15:33:45;7.72;;;5.08;;
71172;SDS011;58875;51.996;4.504;2022-11-25T15:36:14;8.62;;;5.71;;
71172;SDS011;58875;51.996;4.504;2022-11-25T15:38:41;7.39;;;5.03;;
71172;SDS011;58875;51.996;4.504;2022-11-25T15:43:58;7.03;;;4.88;;
71172;SDS011;58875;51.996;4.504;2022-11-25T15:46:27;7.57;;;5.22;;
71172;SDS011;58875;51.996;4.504;2022-11-25T15:48:58;7.07;;;4.94;;
71172;SDS011;58875;51.996;4.504;2022-11-25T15:51:37;7.79;;;5.34;;
71172;SDS011;58875;51.996;4.504;2022-11-25T15:54:27;8.00;;;5.52;;
71172;SDS011;58875;51.996;4.504;2022-11-25T15:56:58;7.50;;;5.32;;
71172;SDS011;58875;51.996;4.504;2022-11-25T16:02:37;8.01;;;5.86;;
71172;SDS011;58875;51.996;4.504;2022-11-25T16:10:17;6.80;;;5.43;;
71172;SDS011;58875;51.996;4.504;2022-11-25T16:16:25;20.84;;;20.64;;
71172;SDS011;58875;51.996;4.504;2022-11-25T16:21:06;16.51;;;16.26;;
71172;SDS011;58875;51.996;4.504;2022-11-25T16:23:46;10.96;;;10.90;;
71172;SDS011;58875;51.996;4.504;2022-11-25T16:26:27;9.14;;;9.07;;
71172;SDS011;58875;51.996;4.504;2022-11-25T16:28:56;7.68;;;7.43;;
71172;SDS011;58875;51.996;4.504;2022-11-25T16:31:25;7.33;;;7.08;;
71172;SDS011;58875;51.996;4.504;2022-11-25T16:33:59;8.67;;;8.43;;
71172;SDS011;58875;51.996;4.504;2022-11-25T16:36:35;11.24;;;10.71;;
71172;SDS011;58875;51.996;4.504;2022-11-25T16:39:01;9.84;;;9.11;;
71172;SDS011;58875;51.996;4.504;2022-11-25T16:41:26;8.23;;;7.62;;
71172;SDS011;58875;51.996;4.504;2022-11-25T16:43:52;6.99;;;6.45;;
71172;SDS011;58875;51.996;4.504;2022-11-25T16:46:18;7.20;;;6.65;;
71172;SDS011;58875;51.996;4.504;2022-11-25T16:48:44;6.95;;;6.58;;
71172;SDS011;58875;51.996;4.504;2022-11-25T16:51:14;6.47;;;6.09;;
71172;SDS011;58875;51.996;4.504;2022-11-25T16:53:42;6.48;;;6.10;;
71172;SDS011;58875;51.996;4.504;2022-11-25T16:56:10;7.32;;;6.78;;
71172;SDS011;58875;51.996;4.504;2022-11-25T16:59:03;6.88;;;6.59;;
71172;SDS011;58875;51.996;4.504;2022-11-25T17:01:30;6.94;;;6.60;;
71172;SDS011;58875;51.996;4.504;2022-11-25T17:03:58;6.70;;;6.48;;
71172;SDS011;58875;51.996;4.504;2022-11-25T17:06:24;6.82;;;6.48;;
71172;SDS011;58875;51.996;4.504;2022-11-25T17:08:52;7.36;;;7.05;;
71172;SDS011;58875;51.996;4.504;2022-11-25T17:11:20;6.97;;;6.91;;
71172;SDS011;58875;51.996;4.504;2022-11-25T17:13:54;6.83;;;6.73;;
71172;SDS011;58875;51.996;4.504;2022-11-25T17:16:23;7.51;;;7.23;;
71172;SDS011;58875;51.996;4.504;2022-11-25T17:18:52;7.70;;;7.43;;
71172;SDS011;58875;51.996;4.504;2022-11-25T17:21:20;7.46;;;7.19;;
71172;SDS011;58875;51.996;4.504;2022-11-25T17:23:50;7.51;;;7.26;;
71172;SDS011;58875;51.996;4.504;2022-11-25T17:26:25;7.43;;;7.20;;
71172;SDS011;58875;51.996;4.504;2022-11-25T17:29:02;7.67;;;7.51;;
71172;SDS011;58875;51.996;4.504;2022-11-25T17:31:32;7.54;;;7.42;;